createdAt,value
2023-01-27T00:30:22.573Z,102.25
2023-01-27T00:33:13.236Z,110.63
2023-01-27T00:35:44.521Z,101.53
2023-01-27T00:38:15.194Z,103.75
2023-01-27T00:41:05.235Z,108.90
2023-01-27T00:43:36.594Z,115.78
2023-01-27T00:46:06.867Z,101.90
2023-01-27T00:48:37.978Z,109.03
2023-01-27T00:51:08.166Z,100.22
2023-01-27T00:53:38.859Z,94.72
2023-01-27T00:56:09.416Z,95.30
2023-01-27T00:58:40.283Z,94.57
2023-01-27T01:01:13.184Z,93.28
2023-01-27T01:03:43.599Z,85.65
2023-01-27T01:06:15.529Z,78.38
2023-01-27T01:08:46.492Z,79.57
2023-01-27T01:11:17.687Z,72.80
2023-01-27T01:13:48.928Z,70.25
2023-01-27T01:16:24.517Z,69.32
2023-01-27T01:18:54.965Z,68.75
2023-01-27T01:21:25.441Z,70.75
2023-01-27T01:23:55.873Z,71.13
2023-01-27T01:26:26.010Z,66.90
2023-01-27T01:28:57.718Z,64.47
2023-01-27T01:31:31.186Z,60.53
2023-01-27T01:34:01.419Z,55.38
2023-01-27T01:36:32.043Z,54.92
2023-01-27T01:39:02.216Z,52.00
2023-01-27T01:41:32.593Z,52.30
2023-01-27T01:44:21.020Z,48.15
2023-01-27T01:46:51.480Z,45.90
2023-01-27T01:49:23.658Z,54.22
2023-01-27T01:51:56.113Z,48.75
2023-01-27T01:54:31.183Z,43.85
2023-01-27T01:57:20.752Z,42.58
2023-01-27T01:59:56.376Z,41.40
2023-01-27T02:02:27.361Z,38.08
2023-01-27T02:05:00.195Z,36.42
2023-01-27T02:07:50.992Z,35.30
2023-01-27T02:10:21.420Z,30.38
2023-01-27T02:12:51.885Z,30.25
2023-01-27T02:15:23.569Z,35.50
2023-01-27T02:17:56.128Z,28.52
2023-01-27T02:20:32.317Z,27.08
2023-01-27T02:23:21.963Z,29.00
2023-01-27T02:26:11.932Z,29.73
2023-01-27T02:28:42.511Z,29.50
2023-01-27T02:31:13.048Z,24.27
2023-01-27T02:33:43.334Z,23.55
2023-01-27T02:36:17.961Z,23.40
2023-01-27T02:38:53.160Z,25.85
2023-01-27T02:41:43.412Z,25.60
2023-01-27T02:44:14.940Z,21.38
2023-01-27T02:46:45.772Z,22.73
2023-01-27T02:49:16.377Z,21.52
2023-01-27T02:51:47.884Z,23.88
2023-01-27T02:54:18.168Z,36.75
2023-01-27T02:56:48.740Z,36.75
2023-01-27T02:59:20.194Z,36.42
2023-01-27T03:01:50.779Z,28.52
2023-01-27T03:04:22.800Z,26.17
2023-01-27T03:06:53.294Z,22.42
2023-01-27T03:09:23.749Z,19.35
2023-01-27T03:12:13.485Z,26.23
2023-01-27T03:15:03.485Z,21.80
2023-01-27T03:17:53.251Z,22.95
2023-01-27T03:20:23.810Z,21.00
2023-01-27T03:22:55.052Z,19.63
2023-01-27T03:25:28.120Z,23.85
2023-01-27T03:27:59.960Z,20.80
2023-01-27T03:30:50.154Z,23.40
2023-01-27T03:33:32.331Z,19.13
2023-01-27T03:36:41.557Z,20.92
2023-01-27T03:39:31.601Z,20.75
2023-01-27T03:42:21.881Z,56.80
2023-01-27T03:45:13.919Z,51.63
2023-01-27T03:47:44.225Z,50.15
2023-01-27T03:50:20.655Z,20.40
2023-01-27T03:53:13.952Z,22.00
2023-01-27T03:55:44.158Z,22.23
2023-01-27T03:58:30.634Z,23.65
2023-01-27T04:01:02.601Z,17.45
2023-01-27T04:03:54.436Z,22.40
2023-01-27T04:06:45.722Z,18.70
2023-01-27T04:09:21.913Z,18.98
2023-01-27T04:11:59.570Z,20.77
2023-01-27T04:14:40.401Z,22.77
2023-01-27T04:17:15.603Z,28.30
2023-01-27T04:19:48.420Z,22.35
2023-01-27T04:22:19.251Z,16.38
2023-01-27T04:24:49.884Z,20.35
2023-01-27T04:27:21.843Z,21.55
2023-01-27T04:29:52.297Z,16.40
2023-01-27T04:32:22.570Z,16.40
2023-01-27T04:34:53.257Z,18.65
2023-01-27T04:37:23.818Z,17.98
2023-01-27T04:39:55.451Z,19.92
2023-01-27T04:42:25.730Z,18.52
2023-01-27T04:44:56.177Z,17.00
2023-01-27T04:47:26.536Z,17.48
2023-01-27T04:49:56.728Z,17.95
2023-01-27T04:52:27.189Z,19.88
2023-01-27T04:54:57.567Z,19.27
2023-01-27T04:57:29.478Z,19.45
2023-01-27T04:59:59.593Z,17.55
2023-01-27T05:02:29.996Z,17.10
2023-01-27T05:05:00.586Z,17.83
2023-01-27T05:07:32.233Z,17.77
2023-01-27T05:10:02.472Z,20.88
2023-01-27T05:12:32.985Z,18.40
2023-01-27T05:15:03.411Z,16.15
2023-01-27T05:17:34.632Z,16.65
2023-01-27T05:20:06.159Z,16.30
2023-01-27T05:22:36.202Z,15.48
2023-01-27T05:25:06.357Z,19.55
2023-01-27T05:27:37.305Z,17.25
2023-01-27T05:30:08.154Z,14.38
2023-01-27T05:32:38.494Z,17.17
2023-01-27T05:35:09.348Z,15.57
2023-01-27T05:37:39.965Z,14.02
2023-01-27T05:40:12.550Z,18.73
2023-01-27T05:42:42.961Z,15.90
2023-01-27T05:45:13.698Z,14.02
2023-01-27T05:47:44.247Z,17.38
2023-01-27T05:50:14.436Z,13.90
2023-01-27T05:52:44.852Z,15.07
2023-01-27T05:55:15.223Z,15.57
2023-01-27T05:57:45.893Z,14.55
2023-01-27T06:00:16.965Z,14.80
2023-01-27T06:02:47.413Z,14.40
2023-01-27T06:05:17.657Z,12.43
2023-01-27T06:07:48.008Z,18.35
2023-01-27T06:10:18.245Z,12.10
2023-01-27T06:12:48.340Z,13.13
2023-01-27T06:15:18.455Z,14.18
2023-01-27T06:17:50.487Z,17.73
2023-01-27T06:20:21.890Z,11.93
2023-01-27T06:22:52.213Z,16.40
2023-01-27T06:25:22.733Z,11.45
2023-01-27T06:27:56.992Z,12.23
2023-01-27T06:30:27.409Z,12.82
2023-01-27T06:32:58.490Z,14.32
2023-01-27T06:35:29.319Z,13.75
2023-01-27T06:38:04.570Z,26.45
2023-01-27T06:40:35.689Z,18.80
2023-01-27T06:43:06.156Z,20.35
2023-01-27T06:45:36.956Z,13.45
2023-01-27T06:48:07.658Z,13.50
2023-01-27T06:50:39.095Z,12.30
2023-01-27T06:53:10.523Z,11.95
2023-01-27T06:55:45.235Z,13.38
2023-01-27T06:58:15.920Z,13.55
2023-01-27T07:00:46.576Z,14.07
2023-01-27T07:05:45.503Z,13.38
2023-01-27T07:08:15.876Z,11.88
2023-01-27T07:10:46.278Z,12.65
2023-01-27T07:13:16.986Z,11.55
2023-01-27T07:15:48.142Z,11.98
2023-01-27T07:18:18.273Z,15.98
2023-01-27T07:20:48.669Z,11.95
2023-01-27T07:23:19.000Z,16.85
2023-01-27T07:25:49.410Z,11.45
2023-01-27T07:28:19.589Z,10.88
2023-01-27T07:30:50.026Z,12.48
2023-01-27T07:33:20.427Z,16.55
2023-01-27T07:35:51.841Z,10.88
2023-01-27T07:38:21.954Z,14.10
2023-01-27T07:40:53.367Z,12.48
2023-01-27T07:43:23.973Z,18.27
2023-01-27T07:45:58.551Z,14.00
2023-01-27T07:48:29.203Z,12.32
2023-01-27T09:30:40.996Z,11.95
2023-01-27T09:33:12.467Z,14.73
2023-01-27T09:35:49.426Z,11.55
2023-01-27T09:38:20.990Z,13.15
2023-01-27T09:41:10.631Z,11.77
2023-01-27T09:44:00.249Z,13.70
2023-01-27T09:46:50.367Z,15.68
2023-01-27T09:49:40.007Z,13.77
2023-01-27T09:52:45.368Z,12.63
2023-01-27T09:55:36.233Z,11.63
2023-01-27T09:58:26.493Z,11.32
2023-01-27T10:01:18.816Z,13.90
2023-01-27T10:04:08.778Z,13.75
2023-01-27T10:06:58.683Z,16.15
2023-01-27T10:09:48.760Z,13.50
2023-01-27T10:12:34.848Z,12.45
2023-01-27T10:15:19.420Z,12.98
2023-01-27T10:18:09.417Z,16.33
2023-01-27T10:21:02.674Z,14.20
2023-01-27T10:23:53.169Z,13.25
2023-01-27T10:26:33.529Z,13.68
2023-01-27T10:29:08.441Z,13.85
2023-01-27T10:31:51.437Z,12.82
2023-01-27T10:34:29.741Z,14.82
2023-01-27T10:37:09.881Z,14.40
2023-01-27T10:39:48.507Z,21.00
2023-01-27T10:42:38.635Z,15.60
2023-01-27T10:45:28.319Z,17.13
2023-01-27T10:48:10.109Z,16.20
2023-01-27T10:50:48.688Z,15.15
2023-01-27T10:53:22.990Z,15.20
2023-01-27T10:56:01.681Z,15.45
2023-01-27T10:58:51.385Z,12.80
2023-01-27T11:01:23.861Z,15.18
2023-01-27T11:04:00.487Z,16.17
2023-01-27T11:06:36.886Z,18.92
2023-01-27T11:09:25.039Z,13.18
2023-01-27T11:11:55.621Z,19.88
2023-01-27T11:14:36.299Z,14.38
2023-01-27T11:17:27.661Z,14.23
2023-01-27T11:20:17.895Z,18.92
2023-01-27T11:22:57.917Z,12.13
2023-01-27T11:25:48.556Z,15.68
2023-01-27T11:28:39.129Z,14.65
2023-01-27T11:31:31.036Z,12.52
2023-01-27T11:34:21.053Z,18.13
2023-01-27T11:36:52.449Z,15.82
2023-01-27T11:39:23.444Z,15.30
2023-01-27T11:41:57.217Z,15.23
2023-01-27T11:44:31.425Z,19.70
2023-01-27T11:47:01.649Z,11.98
2023-01-27T11:49:34.995Z,13.25
2023-01-27T11:52:13.857Z,15.48
2023-01-27T11:54:54.101Z,18.33
2023-01-27T11:57:29.217Z,14.80
2023-01-27T12:00:09.217Z,19.90
2023-01-27T12:03:00.572Z,16.98
2023-01-27T12:05:33.947Z,18.30
2023-01-27T12:08:07.362Z,13.90
2023-01-27T12:10:40.706Z,15.93
2023-01-27T12:13:13.388Z,18.13
2023-01-27T12:15:51.351Z,14.23
2023-01-27T12:18:21.551Z,10.40
2023-01-27T12:21:00.180Z,10.75
2023-01-27T12:23:32.398Z,14.85
2023-01-27T12:26:05.291Z,14.68
2023-01-27T12:28:39.460Z,28.10
2023-01-27T12:31:16.081Z,12.20
2023-01-27T12:33:49.017Z,13.88
2023-01-27T12:36:20.493Z,10.10
2023-01-27T12:38:58.585Z,12.05
2023-01-27T12:41:34.616Z,10.25
2023-01-27T12:44:12.019Z,14.98
2023-01-27T12:46:45.008Z,11.55
2023-01-27T12:49:17.357Z,9.82
2023-01-27T12:51:53.759Z,11.73
2023-01-27T12:54:26.037Z,15.57
2023-01-27T12:56:57.345Z,13.00
2023-01-27T12:59:28.683Z,28.45
2023-01-27T13:02:18.638Z,11.73
2023-01-27T13:05:18.524Z,18.00
2023-01-27T13:07:54.550Z,10.18
2023-01-27T13:10:26.235Z,10.43
2023-01-27T13:12:57.810Z,12.30
2023-01-27T13:15:30.158Z,13.40
2023-01-27T13:18:05.056Z,11.73
2023-01-27T13:20:41.081Z,15.20
2023-01-27T13:23:30.883Z,39.88
2023-01-27T13:26:19.592Z,15.48
2023-01-27T13:29:09.708Z,11.63
2023-01-27T13:31:59.837Z,10.30
2023-01-27T13:34:52.340Z,13.90
2023-01-27T13:37:45.801Z,10.45
2023-01-27T13:40:30.303Z,12.80
2023-01-27T13:43:21.627Z,12.30
2023-01-27T13:46:05.740Z,11.93
2023-01-27T13:48:39.324Z,13.88
2023-01-27T13:51:19.834Z,9.15
2023-01-27T13:53:51.942Z,14.63
2023-01-27T13:56:37.054Z,8.00
2023-01-27T13:59:26.655Z,9.30
2023-01-27T14:02:17.099Z,10.55
2023-01-27T14:05:06.825Z,12.18
2023-01-27T14:07:45.098Z,10.52
2023-01-27T14:10:27.152Z,14.60
2023-01-27T14:13:17.500Z,10.32
2023-01-27T14:16:08.290Z,27.67
2023-01-27T14:18:58.310Z,10.63
2023-01-27T14:21:45.144Z,12.60
2023-01-27T14:24:39.267Z,11.77
2023-01-27T14:27:29.242Z,12.57
2023-01-27T14:30:19.302Z,10.40
2023-01-27T14:33:09.004Z,8.40
2023-01-27T14:35:58.700Z,15.30
2023-01-27T14:38:34.673Z,12.38
2023-01-27T14:41:12.009Z,9.88
2023-01-27T14:44:02.352Z,11.02
2023-01-27T14:46:52.054Z,9.00
2023-01-27T14:49:34.428Z,10.68
2023-01-27T14:52:08.611Z,10.82
2023-01-27T14:54:59.149Z,11.05
2023-01-27T14:57:48.785Z,14.50
2023-01-27T15:00:39.227Z,8.07
2023-01-27T15:03:30.978Z,8.65
2023-01-27T15:06:14.167Z,8.00
2023-01-27T15:09:04.126Z,8.43
2023-01-27T15:11:53.144Z,9.38
2023-01-27T15:14:44.196Z,9.80
2023-01-27T15:17:26.330Z,8.27
2023-01-27T15:20:16.083Z,10.48
2023-01-27T15:22:56.604Z,9.18
2023-01-27T15:25:31.417Z,7.85
2023-01-27T15:28:02.608Z,8.27
2023-01-27T15:30:39.976Z,9.45
2023-01-27T15:33:29.669Z,31.80
2023-01-27T15:36:19.135Z,21.73
2023-01-27T15:39:09.280Z,11.60
2023-01-27T15:41:40.834Z,9.77
2023-01-27T15:44:31.336Z,10.07
2023-01-27T15:47:09.569Z,8.40
2023-01-27T15:49:45.207Z,10.85
2023-01-27T15:52:34.940Z,15.40
2023-01-27T15:55:07.157Z,9.95
2023-01-27T15:57:41.942Z,12.45
2023-01-27T16:00:30.977Z,12.48
2023-01-27T16:03:06.446Z,9.90
2023-01-27T16:05:57.954Z,17.13
2023-01-27T16:08:32.943Z,11.05
2023-01-27T16:11:22.692Z,10.85
2023-01-27T16:13:53.278Z,40.42
2023-01-27T16:16:25.694Z,14.15
2023-01-27T16:19:09.817Z,18.05
2023-01-27T16:21:50.345Z,11.38
2023-01-27T16:24:40.311Z,13.27
2023-01-27T16:27:30.420Z,10.57
2023-01-27T16:30:02.149Z,10.65
2023-01-27T16:32:38.425Z,13.35
2023-01-27T16:35:09.849Z,9.23
2023-01-27T16:37:41.396Z,12.18
2023-01-27T16:40:19.558Z,12.10
2023-01-27T16:43:01.301Z,14.65
2023-01-27T16:45:33.919Z,14.00
2023-01-27T16:48:07.231Z,12.90
2023-01-27T16:50:39.253Z,12.70
2023-01-27T16:53:20.733Z,8.63
2023-01-27T16:56:01.377Z,12.35
2023-01-27T16:58:45.492Z,11.70
2023-01-27T17:01:25.455Z,12.25
2023-01-27T17:04:02.628Z,10.90
2023-01-27T17:06:38.778Z,9.95
2023-01-27T17:09:21.739Z,8.00
2023-01-27T17:11:52.400Z,9.23
2023-01-27T17:14:30.765Z,10.13
2023-01-27T17:17:02.957Z,9.70
2023-01-27T17:19:35.335Z,10.07
2023-01-27T17:22:11.921Z,7.78
2023-01-27T17:24:51.264Z,9.82
2023-01-27T17:27:27.033Z,8.02
2023-01-27T17:30:16.833Z,7.85
2023-01-27T17:32:52.203Z,9.48
2023-01-27T17:35:28.184Z,9.85
2023-01-27T17:38:12.634Z,10.90
2023-01-27T17:40:44.670Z,7.95
2023-01-27T17:43:35.165Z,7.47
2023-01-27T17:46:16.416Z,12.75
2023-01-27T17:49:06.663Z,9.27
2023-01-27T17:51:39.124Z,10.90
2023-01-27T17:54:20.480Z,10.63
2023-01-27T17:56:53.200Z,10.07
2023-01-27T17:59:24.604Z,8.15
2023-01-27T18:01:56.788Z,8.93
2023-01-27T18:04:27.758Z,11.82
2023-01-27T18:06:58.030Z,9.40
2023-01-27T18:09:28.856Z,9.45
2023-01-27T18:12:00.883Z,9.20
2023-01-27T18:14:35.376Z,8.10
2023-01-27T18:17:07.594Z,9.32
2023-01-27T18:19:38.015Z,10.18
2023-01-27T18:22:16.652Z,10.73
2023-01-27T18:24:52.201Z,9.07
2023-01-27T18:27:27.264Z,8.07
2023-01-27T18:30:01.790Z,10.73
2023-01-27T18:32:39.221Z,7.85
2023-01-27T18:35:28.987Z,9.23
2023-01-27T18:38:06.745Z,8.88
2023-01-27T18:40:38.537Z,11.73
2023-01-27T18:43:09.084Z,9.82
2023-01-27T18:45:39.272Z,8.85
2023-01-27T18:48:19.999Z,9.52
2023-01-27T18:50:51.830Z,11.15
2023-01-27T18:53:23.225Z,9.80
2023-01-27T18:55:53.805Z,9.52
2023-01-27T18:58:24.243Z,10.50
2023-01-27T19:00:55.534Z,11.00
2023-01-27T19:03:28.113Z,12.20
2023-01-27T19:05:59.121Z,13.52
2023-01-27T19:08:29.201Z,11.13
2023-01-27T19:11:00.005Z,9.25
2023-01-27T19:13:30.400Z,9.10
2023-01-27T19:16:01.408Z,7.90
2023-01-27T19:18:34.383Z,9.63
2023-01-27T19:21:04.722Z,8.63
2023-01-27T19:23:35.088Z,8.25
2023-01-27T19:26:06.368Z,9.93
2023-01-27T19:28:38.377Z,10.50
2023-01-27T19:31:09.262Z,8.82
2023-01-27T19:33:40.145Z,9.10
2023-01-27T19:36:22.391Z,10.82
2023-01-27T19:38:57.763Z,9.63
2023-01-27T19:41:28.335Z,11.52
2023-01-27T19:43:58.696Z,9.50
2023-01-27T19:46:29.736Z,10.07
2023-01-27T19:48:59.969Z,10.00
2023-01-27T19:51:30.129Z,9.95
2023-01-27T19:54:00.264Z,9.75
2023-01-27T19:56:34.231Z,10.95
2023-01-27T19:59:04.254Z,12.05
2023-01-27T20:01:34.728Z,11.43
2023-01-27T20:04:04.925Z,10.65
2023-01-27T20:06:35.879Z,11.43
2023-01-27T20:09:07.248Z,12.93
2023-01-27T20:11:39.077Z,10.25
2023-01-27T20:14:15.190Z,12.75
2023-01-27T20:16:45.594Z,11.27
2023-01-27T20:19:16.973Z,10.30
2023-01-27T20:21:47.828Z,10.50
2023-01-27T20:24:20.409Z,11.88
2023-01-27T20:26:50.699Z,10.15
2023-01-27T20:29:21.156Z,11.70
2023-01-27T20:31:52.172Z,10.55
2023-01-27T20:34:22.359Z,12.70
2023-01-27T20:36:52.534Z,11.40
2023-01-27T20:39:23.009Z,12.65
2023-01-27T20:41:53.704Z,11.77
2023-01-27T20:44:24.197Z,13.25
2023-01-27T20:46:54.279Z,10.93
2023-01-27T20:49:24.244Z,12.32
2023-01-27T20:51:54.533Z,11.52
2023-01-27T20:54:24.660Z,15.32
2023-01-27T20:56:54.815Z,11.98
2023-01-27T20:59:25.058Z,12.07
2023-01-27T21:01:55.495Z,14.65
2023-01-27T21:04:25.684Z,12.48
2023-01-27T21:06:55.745Z,14.68
2023-01-27T21:09:26.711Z,12.73
2023-01-27T21:11:57.125Z,15.18
2023-01-27T21:14:27.529Z,13.60
2023-01-27T21:16:57.975Z,13.25
2023-01-27T21:19:28.392Z,14.70
2023-01-27T21:21:58.515Z,14.43
2023-01-27T21:24:29.189Z,12.48
2023-01-27T21:26:59.377Z,10.75
2023-01-27T21:29:29.443Z,14.48
2023-01-27T21:32:00.011Z,13.00
2023-01-27T21:34:30.139Z,13.73
2023-01-27T21:37:00.590Z,15.30
2023-01-27T21:39:30.750Z,15.20
2023-01-27T21:42:20.968Z,14.77
2023-01-27T21:45:10.753Z,14.57
2023-01-27T21:47:41.207Z,14.13
2023-01-27T21:50:13.482Z,13.40
2023-01-27T21:52:48.126Z,14.20
2023-01-27T21:55:26.218Z,15.18
2023-01-27T21:57:57.514Z,15.40
2023-01-27T22:00:28.676Z,13.20
2023-01-27T22:03:00.462Z,13.65
2023-01-27T22:05:31.676Z,12.10
2023-01-27T22:08:05.311Z,14.10
2023-01-27T22:10:35.550Z,13.63
2023-01-27T22:13:06.632Z,12.13
2023-01-27T22:15:36.781Z,12.45
2023-01-27T22:18:08.783Z,12.13
2023-01-27T22:20:39.639Z,15.77
2023-01-27T22:23:10.428Z,13.02
2023-01-27T22:25:41.095Z,14.93
2023-01-27T22:28:11.538Z,11.70
2023-01-27T22:30:42.330Z,15.15
2023-01-27T22:33:14.227Z,13.25
2023-01-27T22:35:44.524Z,13.98
2023-01-27T22:38:15.291Z,14.05
2023-01-27T22:40:46.077Z,16.20
2023-01-27T22:43:16.567Z,14.27
2023-01-27T22:45:47.201Z,17.02
2023-01-27T22:48:17.705Z,15.05
2023-01-27T22:50:47.895Z,16.05
2023-01-27T22:53:18.699Z,18.95
2023-01-27T22:55:49.129Z,15.70
2023-01-27T22:58:19.633Z,19.10
2023-01-27T23:00:50.296Z,15.50
2023-01-27T23:03:20.594Z,14.75
2023-01-27T23:05:51.035Z,17.15
2023-01-27T23:08:22.151Z,18.27
2023-01-27T23:10:52.845Z,18.10
2023-01-27T23:13:23.171Z,19.08
2023-01-27T23:15:53.503Z,15.65
2023-01-27T23:18:23.638Z,15.88
2023-01-27T23:20:54.280Z,18.45
2023-01-27T23:23:24.683Z,16.75
2023-01-27T23:25:55.059Z,17.77
2023-01-27T23:28:25.463Z,16.83
2023-01-27T23:30:56.131Z,21.63
2023-01-27T23:33:28.687Z,18.33
2023-01-27T23:36:00.297Z,18.13
2023-01-27T23:38:33.936Z,16.75
2023-01-27T23:41:06.567Z,18.38
2023-01-27T23:43:37.268Z,15.98
2023-01-27T23:46:07.495Z,18.42
2023-01-27T23:48:37.914Z,18.65
2023-01-27T23:51:09.199Z,19.65
2023-01-27T23:53:40.043Z,20.75
2023-01-27T23:56:11.993Z,18.98
2023-01-27T23:58:42.846Z,20.27
